createdAt,value
2018-03-29T00:00:39.928Z,48.23
2018-03-29T00:03:07.883Z,48.81
2018-03-29T00:05:35.878Z,48.51
2018-03-29T00:08:03.929Z,47.88
2018-03-29T00:10:31.953Z,49.56
2018-03-29T00:13:00.008Z,48.79
2018-03-29T00:15:28.012Z,49.11
2018-03-29T00:17:56.056Z,48.91
2018-03-29T00:20:24.405Z,48.25
2018-03-29T00:22:52.388Z,48.33
2018-03-29T00:25:20.395Z,49.91
2018-03-29T00:27:48.474Z,50.61
2018-03-29T00:30:16.485Z,49.79
2018-03-29T00:32:44.528Z,52.43
2018-03-29T00:35:12.501Z,49.76
2018-03-29T00:37:40.499Z,51.07
2018-03-29T00:40:08.471Z,50.47
2018-03-29T00:42:36.517Z,51.11
2018-03-29T00:45:04.596Z,53.62
2018-03-29T00:47:33.706Z,52.52
2018-03-29T00:50:01.734Z,51.59
2018-03-29T00:52:29.754Z,49.66
2018-03-29T00:54:57.739Z,49.86
2018-03-29T00:57:25.687Z,49.19
2018-03-29T00:59:53.725Z,48.75
2018-03-29T01:02:21.722Z,48.25
2018-03-29T01:04:49.786Z,50.33
2018-03-29T01:07:17.765Z,48.48
2018-03-29T01:09:45.831Z,48.75
2018-03-29T01:12:13.851Z,47.28
2018-03-29T01:14:41.902Z,46.17
2018-03-29T01:17:09.932Z,48.34
2018-03-29T01:19:38.011Z,47.75
2018-03-29T01:22:06.098Z,47.99
2018-03-29T01:24:34.142Z,52.05
2018-03-29T01:27:02.219Z,55.95
2018-03-29T01:29:30.245Z,57.57
2018-03-29T01:31:58.216Z,58.30
2018-03-29T01:34:26.275Z,59.46
2018-03-29T01:36:54.264Z,58.09
2018-03-29T01:39:22.320Z,58.78
2018-03-29T01:41:50.267Z,55.79
2018-03-29T01:44:18.436Z,53.88
2018-03-29T01:46:46.421Z,52.43
2018-03-29T01:49:14.508Z,51.71
2018-03-29T01:51:42.575Z,53.37
2018-03-29T01:54:10.562Z,54.12
2018-03-29T01:56:38.611Z,54.07
2018-03-29T01:59:06.690Z,56.29
2018-03-29T02:01:34.711Z,60.20
2018-03-29T02:04:02.730Z,60.19
2018-03-29T02:06:30.758Z,57.54
2018-03-29T02:08:58.743Z,55.52
2018-03-29T02:11:26.831Z,55.16
2018-03-29T02:13:54.899Z,56.34
2018-03-29T02:16:22.947Z,57.41
2018-03-29T02:18:51.015Z,58.73
2018-03-29T02:21:19.074Z,54.80
2018-03-29T02:23:47.451Z,52.63
2018-03-29T02:26:15.495Z,52.13
2018-03-29T02:28:43.467Z,57.00
2018-03-29T02:31:11.453Z,55.59
2018-03-29T02:33:39.499Z,54.13
2018-03-29T02:36:07.506Z,54.96
2018-03-29T02:38:35.563Z,53.29
2018-03-29T02:41:03.606Z,54.84
2018-03-29T02:43:31.673Z,52.34
2018-03-29T02:45:59.695Z,51.95
2018-03-29T02:48:27.706Z,52.14
2018-03-29T02:50:55.705Z,54.29
2018-03-29T02:53:23.705Z,56.05
2018-03-29T02:55:51.726Z,53.45
2018-03-29T02:58:19.796Z,54.54
2018-03-29T03:00:47.973Z,53.46
2018-03-29T03:03:15.907Z,56.40
2018-03-29T03:05:43.902Z,56.17
2018-03-29T03:08:11.869Z,55.10
2018-03-29T03:10:39.925Z,53.44
2018-03-29T03:13:08.011Z,55.16
2018-03-29T03:15:36.089Z,67.73
2018-03-29T03:18:04.122Z,64.94
2018-03-29T03:20:32.142Z,56.52
2018-03-29T03:23:00.201Z,55.35
2018-03-29T03:25:28.526Z,54.25
2018-03-29T03:27:56.640Z,53.31
2018-03-29T03:30:24.667Z,51.46
2018-03-29T03:32:52.676Z,51.88
2018-03-29T03:35:20.688Z,52.72
2018-03-29T03:37:48.712Z,53.55
2018-03-29T03:40:16.722Z,53.32
2018-03-29T03:42:44.740Z,53.38
2018-03-29T03:45:12.732Z,58.86
2018-03-29T03:47:40.751Z,61.06
2018-03-29T03:50:08.825Z,61.60
2018-03-29T03:52:36.786Z,61.43
2018-03-29T03:55:04.825Z,58.66
2018-03-29T03:57:32.802Z,57.89
2018-03-29T04:00:00.831Z,56.45
2018-03-29T04:02:28.823Z,57.11
2018-03-29T04:04:56.827Z,56.47
2018-03-29T04:07:24.835Z,56.31
2018-03-29T04:09:52.885Z,59.72
2018-03-29T04:12:20.999Z,59.70
2018-03-29T04:14:49.033Z,57.22
2018-03-29T04:17:16.995Z,57.99
2018-03-29T04:19:45.137Z,56.83
2018-03-29T04:22:13.158Z,56.42
2018-03-29T04:24:41.142Z,56.73
2018-03-29T04:27:09.441Z,56.40
2018-03-29T04:29:38.391Z,58.24
2018-03-29T04:32:06.556Z,57.40
2018-03-29T04:34:34.613Z,57.27
2018-03-29T04:37:02.663Z,56.63
2018-03-29T04:39:31.360Z,55.98
2018-03-29T04:41:59.412Z,56.07
2018-03-29T04:44:27.456Z,56.49
2018-03-29T04:46:55.440Z,61.44
2018-03-29T04:49:23.474Z,54.02
2018-03-29T04:51:52.390Z,54.50
2018-03-29T04:54:20.443Z,56.71
2018-03-29T04:56:48.502Z,56.85
2018-03-29T04:59:16.511Z,57.57
2018-03-29T05:01:44.590Z,60.04
2018-03-29T05:04:12.607Z,67.74
2018-03-29T05:06:40.639Z,56.63
2018-03-29T05:09:08.712Z,56.46
2018-03-29T05:11:36.717Z,54.76
2018-03-29T05:14:04.718Z,55.09
2018-03-29T05:16:32.799Z,56.10
2018-03-29T05:19:01.161Z,57.74
2018-03-29T05:21:29.111Z,60.29
2018-03-29T05:23:57.129Z,60.54
2018-03-29T05:26:25.286Z,57.94
2018-03-29T05:28:53.772Z,56.60
2018-03-29T05:31:21.796Z,59.01
2018-03-29T05:33:49.820Z,59.75
2018-03-29T05:36:17.868Z,59.84
2018-03-29T05:38:45.957Z,59.01
2018-03-29T05:41:13.978Z,57.83
2018-03-29T05:43:42.012Z,56.44
2018-03-29T05:46:10.089Z,55.29
2018-03-29T05:48:38.137Z,55.98
2018-03-29T05:51:06.148Z,55.57
2018-03-29T05:53:34.156Z,54.36
2018-03-29T05:56:02.215Z,54.72
2018-03-29T05:58:30.222Z,54.28
2018-03-29T06:00:58.235Z,53.06
2018-03-29T06:03:26.238Z,53.29
2018-03-29T06:05:55.143Z,55.45
2018-03-29T06:08:23.135Z,55.32
2018-03-29T06:10:51.252Z,53.74
2018-03-29T06:13:19.255Z,54.39
2018-03-29T06:15:47.338Z,54.24
2018-03-29T06:18:15.376Z,53.88
2018-03-29T06:20:43.426Z,53.87
2018-03-29T06:23:11.439Z,54.54
2018-03-29T06:25:39.436Z,52.34
2018-03-29T06:28:07.496Z,51.61
2018-03-29T06:30:35.796Z,51.01
2018-03-29T06:33:03.836Z,52.55
2018-03-29T06:35:31.803Z,50.61
2018-03-29T06:37:59.840Z,49.28
2018-03-29T06:40:27.800Z,47.23
2018-03-29T06:42:55.775Z,46.29
2018-03-29T06:45:23.772Z,44.66
2018-03-29T06:47:51.737Z,45.75
2018-03-29T06:50:19.751Z,43.92
2018-03-29T06:52:47.751Z,41.44
2018-03-29T06:55:15.713Z,40.65
2018-03-29T06:57:43.772Z,39.90
2018-03-29T07:00:11.828Z,40.46
2018-03-29T07:02:39.909Z,40.49
2018-03-29T07:05:07.956Z,39.72
2018-03-29T07:07:35.998Z,37.21
2018-03-29T07:10:04.565Z,37.67
2018-03-29T07:12:33.271Z,38.60
2018-03-29T07:15:01.675Z,41.64
2018-03-29T07:17:30.106Z,39.19
2018-03-29T07:19:58.342Z,33.30
2018-03-29T07:22:26.752Z,36.19
2018-03-29T07:24:55.336Z,34.00
2018-03-29T07:27:23.939Z,36.17
2018-03-29T07:29:52.294Z,34.08
2018-03-29T07:32:20.991Z,31.25
2018-03-29T07:34:49.349Z,32.32
2018-03-29T07:37:17.662Z,28.91
2018-03-29T07:39:45.922Z,30.50
2018-03-29T07:42:14.490Z,27.06
2018-03-29T07:44:42.670Z,28.59
2018-03-29T07:47:11.305Z,25.78
2018-03-29T07:49:39.931Z,25.93
2018-03-29T07:52:08.228Z,23.66
2018-03-29T07:54:36.891Z,26.44
2018-03-29T07:57:05.288Z,23.96
2018-03-29T07:59:33.847Z,24.52
2018-03-29T08:02:02.147Z,20.55
2018-03-29T08:04:30.622Z,23.13
2018-03-29T08:06:59.265Z,23.40
2018-03-29T08:09:27.871Z,23.72
2018-03-29T08:11:56.161Z,24.55
2018-03-29T08:14:24.566Z,24.06
2018-03-29T08:16:53.216Z,21.16
2018-03-29T08:19:21.497Z,23.86
2018-03-29T08:21:50.114Z,21.68
2018-03-29T08:24:18.463Z,21.27
2018-03-29T08:26:46.956Z,21.91
2018-03-29T08:29:15.416Z,22.51
2018-03-29T08:31:43.707Z,20.39
2018-03-29T08:34:12.344Z,21.86
2018-03-29T08:36:40.660Z,21.15
2018-03-29T08:39:08.668Z,22.09
2018-03-29T08:41:36.714Z,22.89
2018-03-29T08:44:04.721Z,20.96
2018-03-29T08:46:32.737Z,21.08
2018-03-29T08:49:00.819Z,20.59
2018-03-29T08:51:28.813Z,20.37
2018-03-29T08:53:56.887Z,20.86
2018-03-29T08:56:24.839Z,18.34
2018-03-29T08:58:52.822Z,17.55
2018-03-29T09:01:20.890Z,17.97
2018-03-29T09:03:48.921Z,19.50
2018-03-29T09:06:16.986Z,18.46
2018-03-29T09:08:45.005Z,19.02
2018-03-29T09:11:13.039Z,17.68
2018-03-29T09:13:41.052Z,18.97
2018-03-29T09:16:09.058Z,17.84
2018-03-29T09:18:37.102Z,18.03
2018-03-29T09:21:05.131Z,18.67
2018-03-29T09:23:33.105Z,18.57
2018-03-29T09:26:01.096Z,18.96
2018-03-29T09:28:29.093Z,20.94
2018-03-29T09:30:57.059Z,20.78
2018-03-29T09:33:25.051Z,21.42
2018-03-29T09:35:53.090Z,20.96
2018-03-29T09:38:21.100Z,20.35
2018-03-29T09:40:49.103Z,18.54
2018-03-29T09:43:17.123Z,16.89
2018-03-29T09:45:45.128Z,16.57
2018-03-29T09:48:13.078Z,18.12
2018-03-29T09:50:41.007Z,15.26
2018-03-29T09:53:08.951Z,16.57
2018-03-29T09:55:36.949Z,17.36
2018-03-29T09:58:04.934Z,19.72
2018-03-29T10:00:35.727Z,14.41
2018-03-29T10:03:09.207Z,17.00
2018-03-29T10:05:38.459Z,15.45
2018-03-29T10:08:06.467Z,13.83
2018-03-29T10:10:34.475Z,16.46
2018-03-29T10:13:02.482Z,14.32
2018-03-29T10:15:30.535Z,16.86
2018-03-29T10:17:58.528Z,15.89
2018-03-29T10:20:26.532Z,13.65
2018-03-29T10:22:54.634Z,13.96
2018-03-29T10:25:22.608Z,15.75
2018-03-29T10:27:50.640Z,13.80
2018-03-29T10:30:18.628Z,14.44
2018-03-29T10:32:46.650Z,14.39
2018-03-29T10:35:14.675Z,15.42
2018-03-29T10:37:43.204Z,15.03
2018-03-29T10:40:11.296Z,14.78
2018-03-29T10:42:39.384Z,13.51
2018-03-29T10:45:07.427Z,15.06
2018-03-29T10:47:35.475Z,16.36
2018-03-29T10:50:03.532Z,14.95
2018-03-29T10:52:31.580Z,14.83
2018-03-29T10:54:59.495Z,15.61
2018-03-29T10:57:27.471Z,16.54
2018-03-29T10:59:55.458Z,16.57
2018-03-29T11:02:23.449Z,14.39
2018-03-29T11:04:51.478Z,17.04
2018-03-29T11:07:19.863Z,17.55
2018-03-29T11:09:47.818Z,17.60
2018-03-29T11:12:15.800Z,12.29
2018-03-29T11:14:43.689Z,13.80
2018-03-29T11:17:11.709Z,13.32
2018-03-29T11:19:39.739Z,15.14
2018-03-29T11:22:07.749Z,14.65
2018-03-29T11:24:35.726Z,15.98
2018-03-29T11:27:03.741Z,14.62
2018-03-29T11:29:31.961Z,14.81
2018-03-29T11:31:59.945Z,15.19
2018-03-29T11:34:27.970Z,14.66
2018-03-29T11:36:55.955Z,13.65
2018-03-29T11:39:24.478Z,14.14
2018-03-29T11:41:52.503Z,14.52
2018-03-29T11:44:20.508Z,14.96
2018-03-29T11:46:48.514Z,12.72
2018-03-29T11:49:16.535Z,14.01
2018-03-29T11:51:44.597Z,14.74
2018-03-29T11:54:13.311Z,15.12
2018-03-29T11:56:41.761Z,14.55
2018-03-29T11:59:09.964Z,13.61
2018-03-29T12:01:38.507Z,14.09
2018-03-29T12:04:06.956Z,14.33
2018-03-29T12:06:35.570Z,14.52
2018-03-29T12:09:03.874Z,15.20
2018-03-29T12:11:32.526Z,15.63
2018-03-29T12:14:00.837Z,13.63
2018-03-29T12:16:29.084Z,14.92
2018-03-29T12:18:57.602Z,14.85
2018-03-29T12:21:26.247Z,14.21
2018-03-29T12:23:54.799Z,13.63
2018-03-29T12:26:23.228Z,15.37
2018-03-29T12:28:51.587Z,13.65
2018-03-29T12:31:20.167Z,15.61
2018-03-29T12:33:48.752Z,13.65
2018-03-29T12:36:17.429Z,14.49
2018-03-29T12:38:45.842Z,12.65
2018-03-29T12:41:14.410Z,12.96
2018-03-29T12:43:42.892Z,13.10
2018-03-29T12:46:11.274Z,12.65
2018-03-29T12:48:39.839Z,14.62
2018-03-29T12:51:08.290Z,12.85
2018-03-29T12:53:36.924Z,13.84
2018-03-29T12:56:05.073Z,13.62
2018-03-29T12:58:33.053Z,13.86
2018-03-29T13:01:00.976Z,13.71
2018-03-29T13:03:28.988Z,13.41
2018-03-29T13:05:57.064Z,13.50
2018-03-29T13:08:25.136Z,13.49
2018-03-29T13:10:53.111Z,14.98
2018-03-29T13:13:21.132Z,12.42
2018-03-29T13:15:49.132Z,12.88
2018-03-29T13:18:17.122Z,12.71
2018-03-29T13:20:45.158Z,12.27
2018-03-29T13:23:13.208Z,14.01
2018-03-29T13:25:41.218Z,15.79
2018-03-29T13:28:09.282Z,16.08
2018-03-29T13:30:37.304Z,16.23
2018-03-29T13:33:05.375Z,15.62
2018-03-29T13:35:33.394Z,15.45
2018-03-29T13:38:01.444Z,16.55
2018-03-29T13:40:29.475Z,15.04
2018-03-29T13:42:57.668Z,15.57
2018-03-29T13:45:25.635Z,15.33
2018-03-29T13:47:53.798Z,15.45
2018-03-29T13:50:21.847Z,15.73
2018-03-29T13:52:49.913Z,14.91
2018-03-29T13:55:17.898Z,15.84
2018-03-29T13:57:46.271Z,15.75
2018-03-29T14:00:14.294Z,15.46
2018-03-29T14:02:42.382Z,15.03
2018-03-29T14:05:10.446Z,14.45
2018-03-29T14:07:38.462Z,13.33
2018-03-29T14:10:06.464Z,14.19
2018-03-29T14:12:34.444Z,14.90
2018-03-29T14:15:02.400Z,14.96
2018-03-29T14:17:30.380Z,15.67
2018-03-29T14:19:58.400Z,16.69
2018-03-29T14:22:26.388Z,16.14
2018-03-29T14:24:54.386Z,15.87
2018-03-29T14:27:22.479Z,17.85
2018-03-29T14:29:50.439Z,16.56
2018-03-29T14:32:18.467Z,17.13
2018-03-29T14:34:46.415Z,17.39
2018-03-29T14:37:14.430Z,17.50
2018-03-29T14:39:42.454Z,18.29
2018-03-29T14:42:10.506Z,17.03
2018-03-29T14:44:38.792Z,18.36
2018-03-29T14:47:06.824Z,18.15
2018-03-29T14:49:34.820Z,19.11
2018-03-29T14:52:02.817Z,18.71
2018-03-29T14:54:30.776Z,18.37
2018-03-29T14:56:58.772Z,19.47
2018-03-29T14:59:26.791Z,19.57
2018-03-29T15:01:54.734Z,19.79
2018-03-29T15:04:22.710Z,19.55
2018-03-29T15:06:50.718Z,19.52
2018-03-29T15:09:18.677Z,20.17
2018-03-29T15:11:46.692Z,20.82
2018-03-29T15:14:14.727Z,20.36
2018-03-29T15:16:42.737Z,20.75
2018-03-29T15:19:10.691Z,20.93
2018-03-29T15:21:38.722Z,20.53
2018-03-29T15:24:06.739Z,22.00
2018-03-29T15:26:34.798Z,21.92
2018-03-29T15:29:03.152Z,22.75
2018-03-29T15:31:31.591Z,23.01
2018-03-29T15:34:00.020Z,22.30
2018-03-29T15:36:28.517Z,22.26
2018-03-29T15:38:57.043Z,22.41
2018-03-29T15:41:26.439Z,22.86
2018-03-29T15:43:54.810Z,23.13
2018-03-29T15:46:23.456Z,23.36
2018-03-29T15:48:52.200Z,24.30
2018-03-29T15:51:20.631Z,24.21
2018-03-29T15:53:49.081Z,24.28
2018-03-29T15:56:17.523Z,24.77
2018-03-29T15:58:45.756Z,23.99
2018-03-29T16:01:14.167Z,24.73
2018-03-29T16:03:42.662Z,24.92
2018-03-29T16:06:11.201Z,25.52
2018-03-29T16:08:39.427Z,25.52
2018-03-29T16:11:08.114Z,25.37
2018-03-29T16:13:36.379Z,26.08
2018-03-29T16:16:05.061Z,25.59
2018-03-29T16:18:33.430Z,25.12
2018-03-29T16:21:01.928Z,25.93
2018-03-29T16:23:30.599Z,26.31
2018-03-29T16:25:58.945Z,26.48
2018-03-29T16:28:27.374Z,25.50
2018-03-29T16:30:55.935Z,26.59
2018-03-29T16:33:24.352Z,26.31
2018-03-29T16:35:52.812Z,25.85
2018-03-29T16:38:21.385Z,30.19
2018-03-29T16:40:49.770Z,27.00
2018-03-29T16:43:18.460Z,26.75
2018-03-29T16:45:46.818Z,28.43
2018-03-29T16:48:15.414Z,27.84
2018-03-29T16:50:43.884Z,28.14
2018-03-29T16:53:12.329Z,30.05
2018-03-29T16:55:40.954Z,29.08
2018-03-29T16:58:09.531Z,30.95
2018-03-29T17:00:38.424Z,30.98
2018-03-29T17:03:06.949Z,30.96
2018-03-29T17:05:35.495Z,30.08
2018-03-29T17:08:03.964Z,31.34
2018-03-29T17:10:32.446Z,31.09
2018-03-29T17:13:00.732Z,30.75
2018-03-29T17:15:29.416Z,31.37
2018-03-29T17:17:57.606Z,33.31
2018-03-29T17:20:26.162Z,33.95
2018-03-29T17:22:54.506Z,33.84
2018-03-29T17:25:22.941Z,35.60
2018-03-29T17:27:51.060Z,34.14
2018-03-29T17:30:19.529Z,34.31
2018-03-29T17:32:48.056Z,33.65
2018-03-29T17:35:16.447Z,34.94
2018-03-29T17:37:44.811Z,34.35
2018-03-29T17:40:13.254Z,36.49
2018-03-29T17:42:41.563Z,36.05
2018-03-29T17:45:09.952Z,34.02
2018-03-29T17:47:38.430Z,35.61
2018-03-29T17:50:07.410Z,34.13
2018-03-29T17:52:35.700Z,34.77
2018-03-29T17:55:04.271Z,33.91
2018-03-29T17:57:32.556Z,33.33
2018-03-29T18:00:00.958Z,32.63
2018-03-29T18:02:29.498Z,35.50
2018-03-29T18:04:57.988Z,36.90
2018-03-29T18:07:26.495Z,36.88
2018-03-29T18:09:55.163Z,35.50
2018-03-29T18:12:24.043Z,36.82
2018-03-29T18:14:52.628Z,36.82
2018-03-29T18:17:21.279Z,35.77
2018-03-29T18:19:49.819Z,35.43
2018-03-29T18:22:18.312Z,37.86
2018-03-29T18:24:46.763Z,38.18
2018-03-29T18:27:15.233Z,38.66
2018-03-29T18:29:43.420Z,38.09
2018-03-29T18:32:11.883Z,38.75
2018-03-29T18:34:40.297Z,39.49
2018-03-29T18:37:08.952Z,39.16
2018-03-29T18:39:37.543Z,37.74
2018-03-29T18:42:06.219Z,38.15
2018-03-29T18:44:34.390Z,37.18
2018-03-29T18:47:02.561Z,37.68
2018-03-29T18:49:30.967Z,38.08
2018-03-29T18:51:59.639Z,37.90
2018-03-29T18:54:28.328Z,38.68
2018-03-29T18:56:57.121Z,37.89
2018-03-29T18:59:25.375Z,37.43
2018-03-29T19:01:53.871Z,36.77
2018-03-29T19:04:22.348Z,39.04
2018-03-29T19:06:50.914Z,37.50
2018-03-29T19:09:19.215Z,40.65
2018-03-29T19:11:47.635Z,40.79
2018-03-29T19:14:16.122Z,41.06
2018-03-29T19:16:44.561Z,39.95
2018-03-29T19:19:13.135Z,40.47
2018-03-29T19:21:41.823Z,40.65
2018-03-29T19:24:10.377Z,40.76
2018-03-29T19:26:38.859Z,40.77
2018-03-29T19:29:07.259Z,40.64
2018-03-29T19:31:36.040Z,43.38
2018-03-29T19:34:04.437Z,42.51
2018-03-29T19:36:33.094Z,42.62
2018-03-29T19:39:01.427Z,43.65
2018-03-29T19:41:30.069Z,41.98
2018-03-29T19:43:58.502Z,41.06
2018-03-29T19:46:27.040Z,43.52
2018-03-29T19:48:55.616Z,46.35
2018-03-29T19:51:24.287Z,46.52
2018-03-29T19:53:53.088Z,46.28
2018-03-29T19:56:21.450Z,45.36
2018-03-29T19:58:49.826Z,45.26
2018-03-29T20:01:18.110Z,44.57
2018-03-29T20:03:46.478Z,42.69
2018-03-29T20:06:14.975Z,44.72
2018-03-29T20:08:43.549Z,45.99
2018-03-29T20:11:12.025Z,45.33
2018-03-29T20:13:40.510Z,47.26
2018-03-29T20:16:08.878Z,44.01
2018-03-29T20:18:37.208Z,44.12
2018-03-29T20:21:05.646Z,46.36
2018-03-29T20:23:34.326Z,46.57
2018-03-29T20:26:02.720Z,44.83
2018-03-29T20:28:31.396Z,43.49
2018-03-29T20:30:59.666Z,45.34
2018-03-29T20:33:28.142Z,45.49
2018-03-29T20:35:56.459Z,44.19
2018-03-29T20:38:24.821Z,45.24
2018-03-29T20:40:53.374Z,45.31
2018-03-29T20:43:21.685Z,46.39
2018-03-29T20:45:49.838Z,44.89
2018-03-29T20:48:18.172Z,45.10
2018-03-29T20:50:46.713Z,44.05
2018-03-29T20:53:15.163Z,44.02
2018-03-29T20:55:43.634Z,44.55
2018-03-29T20:58:11.824Z,44.90
2018-03-29T21:00:40.126Z,46.69
2018-03-29T21:03:08.712Z,47.49
2018-03-29T21:05:37.253Z,46.69
2018-03-29T21:08:05.655Z,46.09
2018-03-29T21:10:34.114Z,44.97
2018-03-29T21:13:02.320Z,44.98
2018-03-29T21:15:30.571Z,47.06
2018-03-29T21:17:59.120Z,47.30
2018-03-29T21:20:27.543Z,45.33
2018-03-29T21:22:56.110Z,46.54
2018-03-29T21:25:24.306Z,44.60
2018-03-29T21:27:52.778Z,43.89
2018-03-29T21:30:20.980Z,45.32
2018-03-29T21:32:49.527Z,44.53
2018-03-29T21:35:18.458Z,44.67
2018-03-29T21:37:46.824Z,44.66
2018-03-29T21:40:15.579Z,45.36
2018-03-29T21:42:44.070Z,46.96
2018-03-29T21:45:12.541Z,44.81
2018-03-29T21:47:40.951Z,46.28
2018-03-29T21:50:09.506Z,44.89
2018-03-29T21:52:37.978Z,44.59
2018-03-29T21:55:06.176Z,45.31
2018-03-29T21:57:34.734Z,45.82
2018-03-29T22:00:02.960Z,46.62
2018-03-29T22:02:31.292Z,45.78
2018-03-29T22:04:59.807Z,45.28
2018-03-29T22:07:28.723Z,44.96
2018-03-29T22:09:57.244Z,45.80
2018-03-29T22:12:25.782Z,48.05
2018-03-29T22:14:54.070Z,46.55
2018-03-29T22:17:22.678Z,46.41
2018-03-29T22:19:50.831Z,45.88
2018-03-29T22:22:19.440Z,45.55
2018-03-29T22:24:48.437Z,45.09
2018-03-29T22:27:16.835Z,45.25
2018-03-29T22:29:45.399Z,45.35
2018-03-29T22:32:13.905Z,45.62
2018-03-29T22:34:42.505Z,46.18
2018-03-29T22:37:11.210Z,45.74
2018-03-29T22:39:39.516Z,46.03
2018-03-29T22:42:08.000Z,47.04
2018-03-29T22:44:36.299Z,47.61
2018-03-29T22:47:04.650Z,48.25
2018-03-29T22:49:32.942Z,47.88
2018-03-29T22:52:01.403Z,48.16
2018-03-29T22:54:29.986Z,47.69
2018-03-29T22:56:58.369Z,49.25
2018-03-29T22:59:26.972Z,48.42
2018-03-29T23:01:55.687Z,51.68
2018-03-29T23:04:24.074Z,47.77
2018-03-29T23:06:52.298Z,47.45
2018-03-29T23:09:20.596Z,51.29
2018-03-29T23:11:49.664Z,51.86
2018-03-29T23:14:18.144Z,50.84
2018-03-29T23:16:46.612Z,50.11
2018-03-29T23:19:15.011Z,49.03
2018-03-29T23:21:43.274Z,49.31
2018-03-29T23:24:12.063Z,48.35
2018-03-29T23:26:40.653Z,51.28
2018-03-29T23:29:08.932Z,49.73
2018-03-29T23:31:37.232Z,49.55
2018-03-29T23:34:05.691Z,51.75
2018-03-29T23:36:34.154Z,50.74
2018-03-29T23:39:02.551Z,49.19
2018-03-29T23:41:31.027Z,50.52
2018-03-29T23:43:59.390Z,50.91
2018-03-29T23:46:28.046Z,52.05
2018-03-29T23:48:56.257Z,53.72
2018-03-29T23:51:24.806Z,48.61
2018-03-29T23:53:53.136Z,49.44
2018-03-29T23:56:21.283Z,48.17
2018-03-29T23:58:49.644Z,49.15
